createdAt,value
2018-09-21T00:01:53.211Z,18.10
2018-09-21T00:04:21.340Z,18.00
2018-09-21T00:06:49.534Z,18.00
2018-09-21T00:09:17.715Z,18.00
2018-09-21T00:11:45.883Z,18.00
2018-09-21T00:14:14.121Z,18.00
2018-09-21T00:16:42.257Z,17.90
2018-09-21T00:19:10.460Z,17.90
2018-09-21T00:21:38.637Z,17.90
2018-09-21T00:24:06.784Z,17.90
2018-09-21T00:26:34.928Z,17.90
2018-09-21T00:29:03.106Z,17.80
2018-09-21T00:31:31.271Z,17.80
2018-09-21T00:33:59.444Z,17.80
2018-09-21T00:36:27.581Z,17.80
2018-09-21T00:38:55.667Z,17.80
2018-09-21T00:41:23.803Z,17.70
2018-09-21T00:43:51.980Z,17.70
2018-09-21T00:46:20.253Z,17.70
2018-09-21T00:48:48.383Z,17.70
2018-09-21T00:51:16.514Z,17.70
2018-09-21T00:53:44.648Z,17.60
2018-09-21T00:56:12.847Z,17.60
2018-09-21T00:58:40.996Z,17.60
2018-09-21T01:01:09.115Z,17.60
2018-09-21T01:03:37.282Z,17.50
2018-09-21T01:06:05.438Z,17.50
2018-09-21T01:08:33.680Z,17.50
2018-09-21T01:11:01.828Z,17.50
2018-09-21T01:13:30.024Z,17.50
2018-09-21T01:15:58.220Z,17.50
2018-09-21T01:18:26.866Z,17.40
2018-09-21T01:20:55.062Z,17.40
2018-09-21T01:23:23.234Z,17.40
2018-09-21T01:25:51.747Z,17.40
2018-09-21T01:28:19.966Z,17.40
2018-09-21T01:30:48.208Z,17.40
2018-09-21T01:33:16.382Z,17.40
2018-09-21T01:35:44.599Z,17.40
2018-09-21T01:38:12.808Z,17.30
2018-09-21T01:40:41.271Z,17.30
2018-09-21T01:43:10.374Z,17.30
2018-09-21T01:45:44.132Z,17.30
2018-09-21T01:48:12.367Z,17.30
2018-09-21T01:50:48.423Z,17.30
2018-09-21T01:53:16.700Z,17.20
2018-09-21T01:55:44.853Z,17.30
2018-09-21T01:58:13.613Z,17.20
2018-09-21T02:00:41.793Z,17.20
2018-09-21T02:03:09.988Z,17.20
2018-09-21T02:05:39.012Z,17.20
2018-09-21T02:08:07.156Z,17.20
2018-09-21T02:10:35.350Z,17.20
2018-09-21T02:13:04.747Z,17.20
2018-09-21T02:15:32.902Z,17.20
2018-09-21T02:18:01.130Z,17.20
2018-09-21T02:20:30.982Z,17.20
2018-09-21T02:22:59.392Z,17.20
2018-09-21T02:25:27.549Z,17.30
2018-09-21T02:27:55.796Z,17.30
2018-09-21T02:30:23.963Z,17.40
2018-09-21T02:32:52.085Z,17.40
2018-09-21T02:35:20.342Z,17.40
2018-09-21T02:37:48.515Z,17.40
2018-09-21T02:40:16.713Z,17.40
2018-09-21T02:42:47.064Z,17.50
2018-09-21T02:45:15.254Z,17.60
2018-09-21T02:47:44.251Z,17.70
2018-09-21T02:50:13.036Z,17.70
2018-09-21T02:52:41.589Z,17.80
2018-09-21T02:55:09.737Z,17.80
2018-09-21T02:57:37.936Z,17.80
2018-09-21T03:00:06.694Z,17.90
2018-09-21T03:02:38.283Z,17.80
2018-09-21T03:05:06.505Z,17.80
2018-09-21T03:07:35.777Z,17.80
2018-09-21T03:10:04.770Z,17.80
2018-09-21T03:12:33.040Z,17.80
2018-09-21T03:15:01.192Z,17.80
2018-09-21T03:17:29.337Z,17.90
2018-09-21T03:19:57.474Z,17.90
2018-09-21T03:22:25.696Z,17.90
2018-09-21T03:24:53.888Z,17.90
2018-09-21T03:27:23.841Z,17.90
2018-09-21T03:29:52.070Z,17.90
2018-09-21T03:32:21.639Z,17.90
2018-09-21T03:34:49.803Z,17.90
2018-09-21T03:37:17.941Z,17.90
2018-09-21T03:39:46.147Z,17.90
2018-09-21T03:42:14.367Z,17.90
2018-09-21T03:44:42.562Z,17.90
2018-09-21T03:47:10.735Z,17.90
2018-09-21T03:49:38.873Z,17.90
2018-09-21T03:52:07.108Z,17.90
2018-09-21T03:54:35.268Z,17.90
2018-09-21T03:57:03.399Z,17.90
2018-09-21T03:59:31.604Z,17.90
2018-09-21T04:02:00.941Z,18.00
2018-09-21T04:04:29.080Z,18.00
2018-09-21T04:06:57.322Z,18.00
2018-09-21T04:09:25.499Z,18.00
2018-09-21T04:11:53.646Z,18.00
2018-09-21T04:14:22.356Z,18.00
2018-09-21T04:16:50.570Z,18.00
2018-09-21T04:19:18.740Z,18.00
2018-09-21T04:21:46.916Z,18.00
2018-09-21T04:24:15.808Z,18.00
2018-09-21T04:26:44.118Z,18.00
2018-09-21T04:29:13.034Z,17.90
2018-09-21T04:31:42.240Z,17.90
2018-09-21T04:34:10.552Z,17.80
2018-09-21T04:36:38.726Z,17.70
2018-09-21T04:39:08.985Z,17.70
2018-09-21T04:41:37.390Z,17.60
2018-09-21T04:44:05.603Z,17.60
2018-09-21T04:46:46.960Z,17.60
2018-09-21T04:49:15.884Z,17.50
2018-09-21T04:51:44.092Z,17.50
2018-09-21T04:54:12.269Z,17.50
2018-09-21T04:56:40.479Z,17.50
2018-09-21T04:59:08.681Z,17.50
2018-09-21T05:01:36.954Z,17.50
2018-09-21T05:04:05.124Z,17.40
2018-09-21T05:06:33.675Z,17.40
2018-09-21T05:09:05.521Z,17.50
2018-09-21T05:11:33.708Z,17.50
2018-09-21T05:14:01.870Z,17.50
2018-09-21T05:16:30.988Z,17.50
2018-09-21T05:18:59.216Z,17.60
2018-09-21T05:21:27.332Z,17.60
2018-09-21T05:23:55.519Z,17.70
2018-09-21T05:26:23.646Z,17.80
2018-09-21T05:28:51.887Z,17.90
2018-09-21T05:31:20.100Z,18.10
2018-09-21T05:33:48.293Z,18.20
2018-09-21T05:36:16.536Z,18.30
2018-09-21T05:38:44.662Z,18.50
2018-09-21T05:41:12.832Z,18.60
2018-09-21T05:43:41.120Z,18.70
2018-09-21T05:46:09.848Z,18.80
2018-09-21T05:48:38.074Z,18.90
2018-09-21T05:51:06.810Z,19.00
2018-09-21T05:53:34.974Z,19.10
2018-09-21T05:56:03.146Z,19.20
2018-09-21T05:58:31.364Z,19.30
2018-09-21T06:00:59.552Z,19.40
2018-09-21T06:03:27.734Z,19.50
2018-09-21T06:05:55.934Z,19.60
2018-09-21T06:08:24.103Z,19.80
2018-09-21T06:10:52.394Z,19.90
2018-09-21T06:13:20.604Z,20.00
2018-09-21T06:15:48.760Z,20.10
2018-09-21T06:18:17.898Z,20.30
2018-09-21T06:20:46.030Z,20.60
2018-09-21T06:23:14.188Z,20.80
2018-09-21T06:25:42.352Z,21.00
2018-09-21T06:28:11.073Z,21.30
2018-09-21T06:30:39.522Z,21.60
2018-09-21T06:33:07.686Z,21.70
2018-09-21T06:35:35.854Z,21.90
2018-09-21T06:38:04.010Z,22.10
2018-09-21T06:40:32.142Z,22.30
2018-09-21T06:43:00.304Z,22.50
2018-09-21T06:45:28.459Z,22.70
2018-09-21T06:47:56.679Z,22.80
2018-09-21T06:50:24.817Z,23.00
2018-09-21T06:52:53.068Z,23.10
2018-09-21T06:55:21.274Z,23.30
2018-09-21T06:57:50.095Z,23.30
2018-09-21T07:00:18.296Z,23.40
2018-09-21T07:02:46.468Z,23.40
2018-09-21T07:05:15.922Z,23.40
2018-09-21T07:07:44.404Z,23.40
2018-09-21T07:10:13.076Z,23.40
2018-09-21T07:12:41.864Z,23.60
2018-09-21T07:15:10.346Z,23.70
2018-09-21T07:17:38.749Z,23.80
2018-09-21T07:20:07.014Z,23.80
2018-09-21T07:22:35.514Z,23.80
2018-09-21T07:25:04.018Z,23.70
2018-09-21T07:27:32.353Z,23.80
2018-09-21T07:30:00.474Z,23.60
2018-09-21T07:32:28.706Z,23.50
2018-09-21T07:34:57.035Z,23.40
2018-09-21T07:37:25.374Z,23.30
2018-09-21T07:39:53.486Z,23.20
2018-09-21T07:42:22.512Z,23.20
2018-09-21T07:44:50.684Z,23.20
2018-09-21T07:47:19.748Z,23.10
2018-09-21T07:49:48.429Z,23.10
2018-09-21T07:52:16.620Z,23.00
2018-09-21T07:54:46.032Z,23.00
2018-09-21T07:57:14.153Z,23.00
2018-09-21T07:59:42.347Z,23.00
2018-09-21T08:02:10.543Z,23.20
2018-09-21T08:04:39.358Z,23.30
2018-09-21T08:07:07.759Z,23.50
2018-09-21T08:09:36.011Z,23.60
2018-09-21T08:12:04.597Z,23.80
2018-09-21T08:14:32.776Z,24.00
2018-09-21T08:17:00.954Z,24.20
2018-09-21T08:19:29.169Z,24.30
2018-09-21T08:21:57.417Z,24.40
2018-09-21T08:24:25.575Z,24.50
2018-09-21T08:26:53.885Z,24.60
2018-09-21T08:29:22.139Z,24.70
2018-09-21T08:31:50.304Z,24.80
2018-09-21T08:34:18.713Z,24.80
2018-09-21T08:36:48.178Z,24.90
2018-09-21T08:39:16.929Z,25.00
2018-09-21T08:41:45.391Z,25.10
2018-09-21T08:44:13.641Z,25.10
2018-09-21T08:46:41.848Z,25.20
2018-09-21T08:49:10.037Z,25.40
2018-09-21T08:51:38.257Z,25.50
2018-09-21T08:54:06.699Z,25.50
2018-09-21T08:56:34.945Z,25.50
2018-09-21T08:59:03.114Z,25.60
2018-09-21T09:01:31.464Z,25.70
2018-09-21T09:04:00.804Z,25.70
2018-09-21T09:06:30.003Z,25.80
2018-09-21T09:08:58.239Z,25.90
2018-09-21T09:11:26.415Z,26.00
2018-09-21T09:13:54.545Z,26.00
2018-09-21T09:16:22.798Z,26.00
2018-09-21T09:18:52.063Z,26.10
2018-09-21T09:21:20.214Z,26.20
2018-09-21T09:23:48.406Z,26.30
2018-09-21T09:26:16.601Z,26.30
2018-09-21T09:28:44.801Z,26.40
2018-09-21T09:31:12.970Z,26.40
2018-09-21T09:33:41.190Z,26.50
2018-09-21T09:36:09.410Z,26.60
2018-09-21T09:38:37.832Z,26.70
2018-09-21T09:41:06.056Z,26.70
2018-09-21T09:43:34.241Z,26.80
2018-09-21T09:46:02.470Z,26.90
2018-09-21T09:48:30.733Z,27.00
2018-09-21T09:50:58.966Z,27.10
2018-09-21T09:53:27.234Z,27.20
2018-09-21T09:55:55.386Z,27.30
2018-09-21T09:58:23.592Z,27.40
2018-09-21T10:00:52.403Z,27.50
2018-09-21T10:03:22.386Z,27.60
2018-09-21T10:05:50.846Z,27.60
2018-09-21T10:08:19.166Z,27.60
2018-09-21T10:10:47.368Z,27.80
2018-09-21T10:13:15.506Z,27.80
2018-09-21T10:15:43.727Z,27.90
2018-09-21T10:18:12.008Z,27.90
2018-09-21T10:20:40.232Z,27.90
2018-09-21T10:23:08.682Z,28.10
2018-09-21T10:25:36.845Z,28.30
2018-09-21T10:28:05.301Z,28.20
2018-09-21T10:30:33.869Z,28.20
2018-09-21T10:33:02.209Z,28.30
2018-09-21T10:35:30.419Z,28.40
2018-09-21T10:37:58.524Z,28.50
2018-09-21T10:40:27.776Z,28.60
2018-09-21T10:42:56.042Z,28.60
2018-09-21T10:45:24.218Z,28.60
2018-09-21T10:47:53.242Z,28.60
2018-09-21T10:50:23.358Z,28.50
2018-09-21T10:52:51.632Z,28.50
2018-09-21T10:55:19.742Z,28.70
2018-09-21T10:57:47.904Z,28.80
2018-09-21T11:00:16.708Z,29.00
2018-09-21T11:02:44.847Z,29.10
2018-09-21T11:05:13.041Z,29.20
2018-09-21T11:07:41.290Z,29.20
2018-09-21T11:10:09.667Z,29.20
2018-09-21T11:12:37.954Z,29.10
2018-09-21T11:15:07.284Z,29.10
2018-09-21T11:17:36.609Z,29.00
2018-09-21T11:20:04.923Z,28.90
2018-09-21T11:22:33.062Z,28.90
2018-09-21T11:25:01.280Z,29.00
2018-09-21T11:27:29.382Z,29.20
2018-09-21T11:29:57.650Z,29.40
2018-09-21T11:32:25.785Z,29.70
2018-09-21T11:34:54.607Z,29.80
2018-09-21T11:37:22.809Z,29.90
2018-09-21T11:39:51.008Z,29.90
2018-09-21T11:42:19.229Z,30.00
2018-09-21T11:44:47.492Z,30.10
2018-09-21T11:47:15.738Z,30.20
2018-09-21T11:49:43.785Z,30.30
2018-09-21T11:52:12.034Z,30.40
2018-09-21T11:54:40.286Z,30.50
2018-09-21T11:57:08.408Z,30.50
2018-09-21T11:59:43.281Z,30.50
2018-09-21T12:02:11.500Z,30.50
2018-09-21T12:04:40.318Z,30.70
2018-09-21T12:07:08.486Z,30.70
2018-09-21T12:09:36.636Z,30.70
2018-09-21T12:12:04.840Z,30.60
2018-09-21T12:14:32.985Z,30.50
2018-09-21T12:17:01.228Z,30.30
2018-09-21T12:19:29.452Z,30.00
2018-09-21T12:21:57.708Z,29.80
2018-09-21T12:24:25.878Z,29.60
2018-09-21T12:26:54.053Z,29.50
2018-09-21T12:29:22.336Z,29.60
2018-09-21T12:31:50.529Z,29.60
2018-09-21T12:34:19.309Z,29.70
2018-09-21T12:36:47.446Z,29.70
2018-09-21T12:39:15.686Z,29.70
2018-09-21T12:41:45.918Z,29.70
2018-09-21T12:44:15.667Z,29.80
2018-09-21T12:46:43.852Z,29.80
2018-09-21T12:49:12.109Z,29.90
2018-09-21T12:51:40.291Z,29.90
2018-09-21T12:54:08.490Z,29.80
2018-09-21T12:56:36.731Z,29.70
2018-09-21T12:59:04.913Z,29.70
2018-09-21T13:01:33.111Z,29.60
2018-09-21T13:04:01.675Z,29.60
2018-09-21T13:06:29.951Z,29.50
2018-09-21T13:08:58.079Z,29.50
2018-09-21T13:11:26.234Z,29.40
2018-09-21T13:13:54.466Z,29.40
2018-09-21T13:16:22.717Z,29.20
2018-09-21T13:18:50.964Z,29.10
2018-09-21T13:21:19.131Z,29.00
2018-09-21T13:23:47.346Z,28.90
2018-09-21T13:26:15.584Z,28.80
2018-09-21T13:28:43.805Z,28.80
2018-09-21T13:31:11.934Z,28.80
2018-09-21T13:33:40.864Z,28.80
2018-09-21T13:36:09.034Z,28.80
2018-09-21T13:38:37.206Z,28.70
2018-09-21T13:41:05.495Z,28.50
2018-09-21T13:43:34.058Z,28.40
2018-09-21T13:46:02.264Z,28.20
2018-09-21T13:48:30.426Z,28.20
2018-09-21T13:50:58.684Z,28.10
2018-09-21T13:53:26.900Z,28.00
2018-09-21T13:55:55.136Z,27.90
2018-09-21T13:58:23.388Z,27.80
2018-09-21T14:00:51.624Z,27.70
2018-09-21T14:03:19.940Z,27.60
2018-09-21T14:05:49.421Z,27.60
2018-09-21T14:08:17.668Z,27.50
2018-09-21T14:10:45.934Z,27.50
2018-09-21T14:13:14.132Z,27.50
2018-09-21T14:15:42.440Z,27.50
2018-09-21T14:18:10.612Z,27.60
2018-09-21T14:20:38.800Z,27.50
2018-09-21T14:23:06.997Z,27.40
2018-09-21T14:25:37.228Z,27.40
2018-09-21T14:28:05.510Z,27.30
2018-09-21T14:30:33.857Z,27.20
2018-09-21T14:33:02.003Z,27.20
2018-09-21T14:35:30.212Z,27.10
2018-09-21T14:37:58.379Z,27.00
2018-09-21T14:40:26.991Z,27.00
2018-09-21T14:42:56.921Z,27.00
2018-09-21T14:45:27.507Z,26.90
2018-09-21T14:47:55.860Z,27.00
2018-09-21T14:50:24.029Z,26.30
2018-09-21T14:52:52.275Z,25.40
2018-09-21T14:55:20.409Z,24.30
2018-09-21T14:57:48.632Z,23.30
2018-09-21T15:00:17.682Z,22.60
2018-09-21T15:02:45.890Z,22.00
2018-09-21T15:05:14.185Z,21.40
2018-09-21T15:07:42.454Z,20.90
2018-09-21T15:10:10.630Z,20.50
2018-09-21T15:12:38.782Z,20.20
2018-09-21T15:15:07.262Z,19.90
2018-09-21T15:17:35.380Z,19.60
2018-09-21T15:20:03.618Z,19.40
2018-09-21T15:22:32.212Z,19.10
2018-09-21T15:25:01.110Z,19.00
2018-09-21T15:27:29.254Z,18.80
2018-09-21T15:29:57.400Z,18.70
2018-09-21T15:32:25.616Z,18.60
2018-09-21T15:34:53.774Z,18.40
2018-09-21T15:37:22.037Z,18.30
2018-09-21T15:39:50.185Z,18.20
2018-09-21T15:42:18.316Z,18.10
2018-09-21T15:44:48.190Z,18.00
2018-09-21T15:47:16.381Z,18.00
2018-09-21T15:49:44.587Z,17.90
2018-09-21T15:52:12.738Z,17.80
2018-09-21T15:54:40.928Z,17.80
2018-09-21T15:57:09.074Z,17.70
2018-09-21T15:59:37.278Z,17.60
2018-09-21T16:02:05.434Z,17.50
2018-09-21T16:04:34.364Z,17.40
2018-09-21T16:07:04.443Z,17.30
2018-09-21T16:09:32.633Z,17.30
2018-09-21T16:12:00.944Z,17.10
2018-09-21T16:14:31.682Z,16.90
2018-09-21T16:16:59.870Z,16.80
2018-09-21T16:19:28.042Z,16.70
2018-09-21T16:21:56.224Z,16.60
2018-09-21T16:24:26.069Z,16.50
2018-09-21T16:26:56.825Z,16.50
2018-09-21T16:29:26.247Z,16.50
2018-09-21T16:31:54.447Z,16.40
2018-09-21T16:34:22.749Z,16.40
2018-09-21T16:36:50.995Z,16.30
2018-09-21T16:39:19.251Z,16.20
2018-09-21T16:41:48.026Z,16.20
2018-09-21T16:44:16.266Z,16.10
2018-09-21T16:46:44.448Z,16.10
2018-09-21T16:49:12.807Z,16.10
2018-09-21T16:51:42.674Z,16.00
2018-09-21T16:54:12.577Z,16.00
2018-09-21T16:56:40.874Z,16.40
2018-09-21T16:59:09.086Z,15.90
2018-09-21T17:01:37.273Z,15.90
2018-09-21T17:04:06.432Z,15.90
2018-09-21T17:06:35.397Z,15.80
2018-09-21T17:09:03.818Z,15.80
2018-09-21T17:11:31.980Z,15.80
2018-09-21T17:14:00.268Z,15.80
2018-09-21T17:16:28.491Z,15.70
2018-09-21T17:18:56.704Z,15.70
2018-09-21T17:21:25.625Z,15.70
2018-09-21T17:23:54.896Z,15.70
2018-09-21T17:26:23.280Z,15.60
2018-09-21T17:28:51.424Z,15.70
2018-09-21T17:31:20.588Z,15.70
2018-09-21T17:33:49.579Z,15.80
2018-09-21T17:36:17.782Z,15.70
2018-09-21T17:38:46.544Z,15.70
2018-09-21T17:41:14.752Z,15.80
2018-09-21T17:43:42.941Z,15.80
2018-09-21T17:46:11.196Z,15.80
2018-09-21T17:48:39.403Z,15.70
2018-09-21T17:51:08.491Z,15.70
2018-09-21T17:53:36.895Z,15.60
2018-09-21T17:56:05.117Z,15.60
2018-09-21T17:58:33.313Z,15.60
2018-09-21T18:01:01.595Z,15.60
2018-09-21T18:03:29.852Z,15.60
2018-09-21T18:06:19.763Z,15.60
2018-09-21T18:08:49.447Z,15.50
2018-09-21T18:11:17.680Z,15.50
2018-09-21T18:13:45.899Z,15.50
2018-09-21T18:16:14.220Z,15.50
2018-09-21T18:18:42.360Z,15.50
2018-09-21T18:21:10.604Z,15.50
2018-09-21T18:23:39.910Z,15.50
2018-09-21T18:26:09.234Z,15.50
2018-09-21T18:28:37.554Z,15.50
2018-09-21T18:31:05.852Z,15.60
2018-09-21T18:33:34.151Z,15.50
2018-09-21T18:36:04.720Z,15.50
2018-09-21T18:38:32.992Z,15.40
2018-09-21T18:41:01.207Z,15.40
2018-09-21T18:43:29.466Z,15.40
2018-09-21T18:45:58.432Z,15.40
2018-09-21T18:51:09.314Z,15.50
2018-09-21T18:53:38.180Z,15.40
2018-09-21T18:56:06.402Z,15.40
2018-09-21T18:58:35.777Z,15.40
2018-09-21T19:01:05.078Z,15.40
2018-09-21T19:03:33.249Z,15.40
2018-09-21T19:06:01.470Z,15.40
2018-09-21T19:08:29.709Z,15.40
2018-09-21T19:10:58.049Z,15.80
2018-09-21T19:13:28.518Z,15.40
2018-09-21T19:15:57.920Z,15.40
2018-09-21T19:18:26.160Z,15.30
2018-09-21T19:20:54.426Z,15.30
2018-09-21T19:23:23.317Z,15.30
2018-09-21T19:25:52.518Z,15.30
2018-09-21T19:28:21.031Z,15.30
2018-09-21T19:30:49.270Z,15.30
2018-09-21T19:33:17.533Z,15.30
2018-09-21T19:35:45.936Z,15.30
2018-09-21T19:38:15.182Z,15.30
2018-09-21T19:40:50.377Z,15.20
2018-09-21T19:43:18.698Z,15.20
2018-09-21T19:45:47.162Z,15.30
2018-09-21T19:48:15.541Z,15.20
2018-09-21T19:50:43.678Z,15.20
2018-09-21T19:53:11.945Z,15.10
2018-09-21T19:55:41.626Z,15.10
2018-09-21T19:58:14.965Z,15.20
2018-09-21T20:00:43.384Z,15.10
2018-09-21T20:03:13.588Z,15.20
2018-09-21T20:05:41.778Z,15.20
2018-09-21T20:08:10.660Z,15.10
2018-09-21T20:10:39.657Z,15.10
2018-09-21T20:13:07.863Z,15.10
2018-09-21T20:15:47.268Z,15.10
2018-09-21T20:18:21.228Z,15.10
2018-09-21T20:20:49.488Z,15.00
2018-09-21T20:23:18.848Z,15.00
2018-09-21T20:25:46.995Z,15.00
2018-09-21T20:28:15.190Z,15.00
2018-09-21T20:30:53.102Z,14.90
2018-09-21T20:33:27.637Z,14.90
2018-09-21T20:35:56.267Z,14.80
2018-09-21T20:38:24.475Z,14.80
2018-09-21T20:40:52.641Z,14.70
2018-09-21T20:43:24.894Z,14.70
2018-09-21T20:45:53.533Z,14.70
2018-09-21T20:48:23.701Z,14.60
2018-09-21T20:50:52.126Z,14.60
2018-09-21T20:53:20.646Z,14.50
2018-09-21T20:55:48.803Z,14.50
2018-09-21T20:58:17.010Z,14.40
2018-09-21T21:00:45.184Z,14.40
2018-09-21T21:03:14.546Z,14.40
2018-09-21T21:05:42.684Z,14.40
2018-09-21T21:08:10.885Z,14.40
2018-09-21T21:10:41.364Z,14.30
2018-09-21T21:13:10.583Z,14.40
2018-09-21T21:15:39.522Z,14.30
2018-09-21T21:18:08.786Z,14.20
2018-09-21T21:20:37.013Z,14.20
2018-09-21T21:23:05.689Z,14.20
2018-09-21T21:25:34.120Z,14.20
2018-09-21T21:28:02.300Z,14.10
2018-09-21T21:30:30.449Z,14.10
2018-09-21T21:32:58.570Z,14.10
2018-09-21T21:35:26.718Z,14.10
2018-09-21T21:37:56.660Z,14.00
2018-09-21T21:40:24.927Z,14.10
2018-09-21T21:42:53.039Z,14.10
2018-09-21T21:45:21.182Z,14.10
2018-09-21T21:47:49.304Z,14.20
2018-09-21T21:50:18.357Z,14.20
2018-09-21T21:52:47.115Z,14.20
2018-09-21T21:55:15.276Z,14.20
2018-09-21T21:57:43.983Z,14.20
2018-09-21T22:00:14.935Z,14.20
2018-09-21T22:02:43.801Z,14.10
2018-09-21T22:05:12.073Z,14.10
2018-09-21T22:07:40.302Z,14.10
2018-09-21T22:10:08.936Z,14.00
2018-09-21T22:12:43.307Z,14.00
2018-09-21T22:15:13.881Z,13.90
2018-09-21T22:17:43.371Z,13.90
2018-09-21T22:20:12.269Z,13.90
2018-09-21T22:22:40.485Z,13.90
2018-09-21T22:25:09.253Z,13.80
2018-09-21T22:27:37.425Z,13.80
2018-09-21T22:30:05.875Z,13.70
2018-09-21T22:32:34.031Z,13.70
2018-09-21T22:35:03.131Z,13.70
2018-09-21T22:37:31.325Z,13.70
2018-09-21T22:39:59.544Z,13.70
2018-09-21T22:42:27.787Z,13.70
2018-09-21T22:44:57.302Z,13.60
2018-09-21T22:47:26.507Z,13.60
2018-09-21T22:49:57.375Z,13.60
2018-09-21T22:52:25.679Z,13.50
2018-09-21T22:54:53.865Z,13.50
2018-09-21T22:57:22.199Z,13.50
2018-09-21T22:59:50.767Z,13.50
2018-09-21T23:02:18.924Z,13.40
2018-09-21T23:04:47.105Z,13.40
2018-09-21T23:07:15.272Z,13.40
2018-09-21T23:09:44.336Z,13.30
2018-09-21T23:12:12.545Z,13.30
2018-09-21T23:14:40.762Z,13.30
2018-09-21T23:17:08.995Z,13.20
2018-09-21T23:19:38.400Z,13.20
2018-09-21T23:22:06.587Z,13.10
2018-09-21T23:24:35.059Z,13.10
2018-09-21T23:27:04.542Z,13.10
2018-09-21T23:29:36.297Z,13.10
2018-09-21T23:32:12.147Z,13.20
2018-09-21T23:34:40.781Z,13.30
2018-09-21T23:37:08.987Z,13.40
2018-09-21T23:39:45.253Z,13.40
2018-09-21T23:42:13.431Z,13.40
2018-09-21T23:44:41.613Z,13.40
2018-09-21T23:47:09.843Z,13.30
2018-09-21T23:49:38.085Z,13.30
2018-09-21T23:52:06.429Z,13.30
2018-09-21T23:54:34.637Z,13.20
2018-09-21T23:57:04.116Z,13.10
2018-09-21T23:59:32.389Z,13.10
